Latest Weather Observations for Nhill Aerodrome

IDV60801

Issued at 9:32 am EST Saturday 25 June 2016 (issued every 30 minutes, with the page automatically refreshed every 10 minutes)

About weather observations | Map of weather stations | Latest weather observations for VIC | Other Formats
Station Details ID: 078015 Name: NHILL AERODROME Lat: -36.31 Lon: 141.65 Height: 138.9 m
Data from the previous 72 hours. | See also: Recent months at Nhill Aerodrome
Date/Time
EST
Temp
°C
App
Temp
°C
Dew
Point
°C
Rel
Hum
%
Delta-T
°C
Wind Press
QNH
hPa
Press
MSL
hPa
Rain since
9am
mm
Dir  Spd
km/h
Gust
km/h
Spd
kts
Gust
kts
25/09:30am 4.1 1.2 2.8 91 0.5 NNW 7 9 4 5 1024.9 1025.1 0.0
25/09:00am 3.0 0.2 1.8 92 0.5 NNW 6 7 3 4 1024.7 1024.9 0.6
25/08:30am 2.0 -1.2 1.0 93 0.4 NNW 7 9 4 5 1024.3 1024.5 0.6
25/08:00am 1.5 -1.7 0.5 93 0.4 NNW 7 9 4 5 1024.2 1024.4 0.6
25/07:30am 1.6 -2.0 0.4 92 0.4 NNW 9 11 5 6 1024.0 1024.2 0.6
25/07:00am 1.7 -1.9 0.4 91 0.5 NNW 9 11 5 6 1023.7 1023.9 0.6
25/06:30am 2.1 -1.1 0.8 91 0.5 NNW 7 7 4 4 1023.3 1023.5 0.6
25/06:00am 1.8 -1.8 0.6 92 0.4 NNW 9 11 5 6 1023.0 1023.2 0.6
25/05:30am 1.9 -1.7 0.7 92 0.5 NNW 9 9 5 5 1022.6 1022.8 0.6
25/05:00am 2.0 -1.6 0.8 92 0.5 NNW 9 9 5 5 1022.4 1022.6 0.6
25/04:30am 1.8 -1.4 0.8 93 0.4 NNW 7 11 4 6 1022.3 1022.5 0.6
25/04:00am 2.1 -2.2 0.9 92 0.5 NNW 13 15 7 8 1022.2 1022.4 0.6
25/03:30am 2.2 -1.3 1.0 92 0.5 NNW 9 11 5 6 1022.2 1022.4 0.6
25/03:00am 2.4 -0.7 1.2 92 0.5 NNW 7 11 4 6 1022.1 1022.3 0.6
25/02:30am 3.0 1.3 1.7 91 0.5 CALM 0 4 0 2 1022.0 1022.2 0.6
25/02:00am 2.8 -0.1 1.6 92 0.5 WNW 6 7 3 4 1021.9 1022.1 0.6
25/01:30am 2.5 0.0 1.5 93 0.4 WNW 4 7 2 4 1021.7 1021.9 0.6
25/01:00am 1.4 -1.3 0.1 91 0.5 WNW 4 7 2 4 1021.7 1021.9 0.6
25/12:30am 2.0 0.1 0.7 91 0.5 CALM 0 0 0 0 1021.6 1021.8 0.6
25/12:00am 2.8 -0.7 1.3 90 0.6 WNW 9 11 5 6 1021.4 1021.6 0.6
 
Date/Time
EST
Temp
°C
App
Temp
°C
Dew
Point
°C
Rel
Hum
%
Delta-T
°C
Wind Press
QNH
hPa
Press
MSL
hPa
Rain since
9am
mm
Dir  Spd
km/h
Gust
km/h
Spd
kts
Gust
kts
24/11:30pm 2.9 -0.5 1.6 91 0.5 WNW 9 13 5 7 1021.4 1021.6 0.6
24/11:00pm 2.8 -1.1 1.3 90 0.6 WNW 11 13 6 7 1021.2 1021.4 0.4
24/10:30pm 3.1 -0.7 1.5 89 0.6 WNW 11 13 6 7 1021.0 1021.2 0.4
24/10:00pm 3.4 -0.4 1.6 88 0.7 WNW 11 15 6 8 1020.5 1020.8 0.4
24/09:30pm 3.4 -0.8 1.4 87 0.8 W 13 15 7 8 1020.2 1020.4 0.4
24/09:00pm 3.7 -0.1 1.6 86 0.8 W 11 15 6 8 1019.9 1020.1 0.4
24/08:30pm 3.9 -0.3 1.6 85 0.9 W 13 15 7 8 1019.4 1019.6 0.4
24/08:00pm 4.1 -0.4 2.0 86 0.8 W 15 17 8 9 1019.2 1019.4 0.4
24/07:30pm 4.9 0.8 2.3 83 1.1 WSW 13 15 7 8 1018.4 1018.6 0.4
24/07:00pm 4.8 0.7 2.2 83 1.0 SW 13 17 7 9 1017.8 1018.0 0.4
24/06:30pm 6.0 -0.2 2.3 77 1.5 SW 24 33 13 18 1017.3 1017.5 0.4
24/06:00pm 6.6 1.1 1.7 71 2.0 SW 20 24 11 13 1016.7 1016.9 0.4
24/05:30pm 7.2 -0.6 1.5 67 2.3 SW 32 41 17 22 1016.1 1016.3 0.4
24/05:00pm 7.6 0.7 2.7 71 2.1 SW 28 33 15 18 1015.6 1015.8 0.4
24/04:30pm 8.0 0.2 3.1 71 2.1 SW 33 43 18 23 1014.9 1015.1 0.4
24/04:00pm 7.2 0.5 3.8 79 1.5 SW 28 35 15 19 1014.4 1014.5 0.4
24/03:38pm 7.6 -0.9 3.1 73 1.9 SW 37 72 20 39 1014.2 1014.3 0.4
24/03:37pm 9.0 1.2 2.6 64 2.7 SW 33 52 18 28 1014.0 1014.1 0.4
24/03:30pm 9.3 0.6 2.2 61 3.0 SW 37 50 20 27 1013.6 1013.7 0.4
24/03:00pm 9.2 1.2 1.4 58 3.2 SW 33 43 18 23 1012.9 1013.1 0.4
24/02:30pm 9.3 0.3 2.4 62 2.9 WSW 39 56 21 30 1012.7 1012.9 0.4
24/02:25pm 9.3 1.0 2.2 61 3.0 SW 35 56 19 30 1012.6 1012.8 0.4
24/02:00pm 8.2 -0.9 1.8 64 2.7 SW 39 50 21 27 1012.6 1012.8 0.4
24/01:44pm 9.3 0.1 3.7 68 2.5 SW 41 52 22 28 1012.4 1012.6 0.4
24/01:30pm 8.7 -0.4 1.6 61 2.9 WSW 39 54 21 29 1012.2 1012.4 0.4
24/01:02pm 8.5 -0.8 2.7 67 2.5 WSW 41 61 22 33 1012.0 1012.2 0.4
24/01:00pm 8.5 0.0 2.9 68 2.4 WSW 37 52 20 28 1011.9 1012.1 0.4
24/12:34pm 8.1 0.3 3.0 70 2.2 WSW 33 52 18 28 1012.0 1012.2 0.4
24/12:30pm 8.2 0.7 3.5 72 2.0 WSW 32 43 17 23 1011.9 1012.1 0.4
24/12:00pm 7.5 0.1 3.9 78 1.6 WSW 32 39 17 21 1012.0 1012.2 0.2
24/11:30am 7.4 -0.2 3.8 78 1.6 W 33 46 18 25 1011.3 1011.5 0.2
24/11:00am 7.5 -0.1 3.7 77 1.6 WSW 33 46 18 25 1010.8 1011.0 0.2
24/10:30am 7.1 0.0 3.3 77 1.6 W 30 41 16 22 1010.1 1010.3 0.2
24/10:00am 6.5 0.2 3.7 82 1.2 WSW 26 33 14 18 1009.6 1009.8 0.2
24/09:30am 5.7 -0.7 3.2 84 1.0 W 26 33 14 18 1008.8 1009.0 0.2
24/09:00am 5.2 -0.8 3.1 86 0.9 W 24 32 13 17 1008.2 1008.3 13.0
24/08:30am 4.9 -0.4 3.1 88 0.7 W 20 26 11 14 1007.6 1007.7 13.0
24/08:17am 4.7 -0.9 3.2 90 0.6 W 22 35 12 19 1007.4 1007.5 13.0
24/08:00am 3.3 0.3 2.0 91 0.5 W 7 11 4 6 1007.0 1007.1 12.8
24/07:30am 4.2 0.2 2.7 90 0.6 W 13 17 7 9 1006.4 1006.5 12.8
24/07:00am 4.4 -0.3 2.9 90 0.6 WNW 17 22 9 12 1005.3 1005.5 12.8
24/06:30am 4.4 -0.7 2.9 90 0.6 W 19 26 10 14 1004.8 1005.0 12.8
24/06:00am 4.5 -0.8 3.0 90 0.6 WNW 20 26 11 14 1004.3 1004.5 12.8
24/05:30am 4.7 -1.4 3.0 89 0.7 W 24 28 13 15 1003.9 1004.1 12.8
24/05:00am 4.7 -1.3 3.4 91 0.5 W 24 33 13 18 1003.2 1003.4 12.6
24/04:48am 5.1 -2.0 3.8 91 0.5 W 30 43 16 23 1003.4 1003.6 12.2
24/04:30am 5.4 0.3 4.2 92 0.5 W 20 24 11 13 1003.1 1003.3 11.6
24/04:00am 5.2 0.1 3.9 91 0.6 NW 20 30 11 16 1002.8 1003.0 10.8
24/03:30am 4.6 -0.5 3.1 90 0.6 NW 19 24 10 13 1002.3 1002.4 10.4
24/03:00am 4.5 -0.6 2.8 89 0.7 NW 19 24 10 13 1002.4 1002.6 10.4
24/02:30am 4.8 0.5 3.3 90 0.6 WNW 15 20 8 11 1002.2 1002.3 10.4
24/02:00am 5.0 0.7 3.3 89 0.7 WNW 15 22 8 12 1002.0 1002.1 10.4
24/01:30am 5.5 -0.4 3.8 89 0.7 WNW 24 33 13 18 1002.0 1002.1 10.4
24/01:00am 5.8 1.0 4.4 91 0.6 WNW 19 26 10 14 1002.3 1002.4 10.2
24/12:30am 5.7 0.6 4.3 91 0.6 WNW 20 26 11 14 1002.5 1002.7 10.0
24/12:00am 5.6 -0.2 4.2 91 0.6 WNW 24 30 13 16 1002.3 1002.4 10.0
 
Date/Time
EST
Temp
°C
App
Temp
°C
Dew
Point
°C
Rel
Hum
%
Delta-T
°C
Wind Press
QNH
hPa
Press
MSL
hPa
Rain since
9am
mm
Dir  Spd
km/h
Gust
km/h
Spd
kts
Gust
kts
23/11:30pm 6.1 -2.5 4.7 91 0.6 WNW 39 54 21 29 1002.4 1002.6 8.0
23/11:16pm 6.9 0.5 5.4 90 0.7 NW 28 63 15 34 1002.1 1002.2 6.4
23/11:00pm 7.2 2.0 5.3 88 0.9 NNW 22 28 12 15 1001.7 1001.8 5.8
23/10:30pm 7.2 2.6 6.5 95 0.3 NW 20 24 11 13 1001.7 1001.8 5.6
23/10:00pm 6.9 2.4 6.2 95 0.3 NW 19 24 10 13 1001.6 1001.7 5.6
23/09:30pm 7.0 3.3 6.1 94 0.4 NW 15 24 8 13 1001.6 1001.7 5.6
23/09:00pm 6.9 3.5 5.7 92 0.5 NW 13 17 7 9 1001.4 1001.5 5.6
23/08:30pm 7.5 3.7 6.0 90 0.7 NW 15 17 8 9 1001.4 1001.5 5.6
23/08:00pm 7.9 4.6 6.4 90 0.7 WNW 13 17 7 9 1001.0 1001.1 5.6
23/07:30pm 8.2 3.7 6.3 88 0.9 WNW 19 24 10 13 1001.1 1001.2 5.6
23/07:00pm 8.2 4.5 6.5 89 0.8 WNW 15 19 8 10 1000.9 1001.0 5.6
23/06:30pm 8.1 5.2 6.6 90 0.7 WNW 11 15 6 8 1000.4 1000.5 5.6
23/06:00pm 8.2 5.3 6.7 90 0.7 W 11 15 6 8 1000.1 1000.2 5.6
23/05:30pm 8.3 5.2 7.1 92 0.6 WNW 13 22 7 12 999.9 1000.0 5.6
23/05:00pm 8.6 3.0 7.2 91 0.7 WSW 26 35 14 19 1000.4 1000.5 4.4
23/04:30pm 9.2 4.1 7.8 91 0.7 WNW 24 39 13 21 999.6 999.7 2.4
23/04:00pm 9.4 4.3 7.7 89 0.8 WNW 24 33 13 18 999.2 999.3 1.4
23/03:30pm 9.8 3.5 7.6 86 1.1 NW 30 44 16 24 999.1 999.2 0.6
23/03:01pm 10.6 3.4 7.5 81 1.5 NW 35 54 19 29 998.8 998.9 0.4
23/03:00pm 10.7 3.1 7.4 80 1.6 NW 37 54 20 29 998.8 998.9 0.4
23/02:30pm 11.1 3.9 7.6 79 1.7 WNW 35 56 19 30 998.8 998.9 0.2
23/02:01pm 12.2 3.4 7.1 71 2.5 NW 43 61 23 33 998.9 999.0 0.0
23/02:00pm 12.3 3.2 7.0 70 2.6 NW 44 61 24 33 998.8 998.9 0.0
23/01:30pm 12.9 3.4 6.7 66 3.0 NW 46 65 25 35 998.7 998.8 0.0
23/01:03pm 13.8 2.7 6.4 61 3.6 NNW 54 72 29 39 999.0 999.1 0.0
23/01:00pm 14.0 2.5 6.4 60 3.7 NNW 56 72 30 39 999.0 999.1 0.0
23/12:31pm 13.9 3.3 6.7 62 3.5 NW 52 70 28 38 999.6 999.7 0.0
23/12:30pm 14.0 3.1 7.1 63 3.4 NW 54 70 29 38 999.6 999.7 0.0
23/12:21pm 13.7 3.5 6.8 63 3.4 NNW 50 69 27 37 999.9 1000.0 0.0
23/12:00pm 13.3 3.9 7.3 67 3.0 NNW 46 59 25 32 1000.5 1000.6 0.0
23/11:31am 12.9 5.5 8.2 73 2.3 NNW 37 57 20 31 1001.1 1001.2 0.0
23/11:30am 12.6 5.0 7.7 72 2.4 NNW 37 52 20 28 1001.0 1001.1 0.0
23/11:15am 12.4 4.9 7.9 74 2.2 NNW 37 57 20 31 1001.3 1001.4 0.0
23/11:00am 12.1 4.6 7.8 75 2.1 NNW 37 54 20 29 1001.7 1001.8 0.0
23/10:30am 10.6 4.0 7.7 82 1.4 NNW 32 50 17 27 1002.2 1002.3 0.0
23/10:04am 10.6 3.9 7.5 81 1.5 NNW 32 50 17 27 1002.4 1002.6 0.0
23/10:00am 10.4 3.7 7.5 82 1.4 NNW 32 46 17 25 1002.4 1002.6 0.0
23/09:30am 9.5 3.5 6.9 84 1.2 NNW 28 41 15 22 1002.7 1002.9 0.0
23/09:00am 8.7 3.0 6.7 87 0.9 NNW 26 41 14 22 1002.9 1003.1 0.2
23/08:30am 8.5 3.2 6.8 89 0.8 NNW 24 35 13 19 1003.3 1003.5 0.2
23/08:00am 8.0 2.7 6.6 91 0.7 N 24 41 13 22 1003.5 1003.7 0.2
23/07:30am 8.0 3.0 6.6 91 0.6 NNW 22 32 12 17 1003.6 1003.8 0.2
23/07:00am 8.1 3.1 6.6 90 0.7 N 22 32 12 17 1003.8 1004.0 0.2
23/06:30am 8.4 3.1 6.7 89 0.8 NNW 24 35 13 19 1004.0 1004.2 0.2
23/06:00am 8.4 3.1 6.7 89 0.8 NNW 24 33 13 18 1004.1 1004.3 0.2
23/05:30am 8.5 3.2 6.8 89 0.8 NNW 24 35 13 19 1004.0 1004.2 0.2
23/05:00am 8.3 3.0 6.8 90 0.7 NNW 24 33 13 18 1004.3 1004.5 0.2
23/04:30am 8.3 3.0 6.8 90 0.7 NNW 24 33 13 18 1004.5 1004.7 0.2
23/04:00am 8.5 3.6 7.0 90 0.7 NNW 22 35 12 19 1005.1 1005.3 0.0
23/03:30am 8.7 3.9 7.3 91 0.7 NNW 22 39 12 21 1005.3 1005.5 0.0
23/03:00am 8.2 3.9 6.8 91 0.7 NNW 19 28 10 15 1005.9 1006.0 0.0
23/02:30am 8.3 3.4 6.9 91 0.7 NNW 22 30 12 16 1006.1 1006.2 0.0
23/02:00am 8.4 3.1 6.9 90 0.7 NNW 24 35 13 19 1006.5 1006.6 0.0
23/01:30am 8.1 3.2 6.7 91 0.7 NNW 22 32 12 17 1006.8 1006.9 0.0
23/01:00am 8.0 3.4 6.6 91 0.7 NNW 20 30 11 16 1007.0 1007.1 0.0
23/12:30am 7.9 2.9 6.5 91 0.6 NNW 22 32 12 17 1007.4 1007.5 0.0
23/12:00am 7.6 2.9 6.2 91 0.6 NNW 20 28 11 15 1007.9 1008.0 0.0
 
Date/Time
EST
Temp
°C
App
Temp
°C
Dew
Point
°C
Rel
Hum
%
Delta-T
°C
Wind Press
QNH
hPa
Press
MSL
hPa
Rain since
9am
mm
Dir  Spd
km/h
Gust
km/h
Spd
kts
Gust
kts
22/11:30pm 7.8 3.7 6.3 90 0.7 NNW 17 24 9 13 1008.2 1008.3 0.0
22/11:00pm 8.1 4.1 6.6 90 0.7 NNW 17 24 9 13 1008.3 1008.4 0.0
22/10:30pm 8.2 3.7 6.3 88 0.9 NNW 19 24 10 13 1008.3 1008.4 0.0
22/10:00pm 8.5 4.8 6.5 87 0.9 NNW 15 20 8 11 1008.5 1008.7 0.0
22/09:30pm 8.6 5.0 6.6 87 0.9 NNW 15 20 8 11 1008.5 1008.7 0.0
22/09:00pm 8.8 4.8 6.6 86 1.0 NNW 17 22 9 12 1008.7 1008.9 0.0
22/08:30pm 9.0 5.0 6.6 85 1.1 NNW 17 22 9 12 1008.5 1008.7 0.0
22/08:00pm 9.7 6.2 7.0 83 1.3 NNW 15 20 8 11 1008.3 1008.4 0.0
22/07:30pm 9.8 6.6 6.9 82 1.4 NNW 13 17 7 9 1008.4 1008.6 0.0
22/07:00pm 9.9 6.7 7.0 82 1.4 NNW 13 15 7 8 1008.3 1008.4 0.0
22/06:30pm 11.4 7.0 6.7 73 2.2 NW 19 24 10 13 1008.1 1008.2 0.0
22/06:00pm 11.9 7.5 6.6 70 2.5 NW 19 26 10 14 1008.2 1008.3 0.0
22/05:30pm 12.2 7.9 7.1 71 2.5 NW 19 26 10 14 1008.1 1008.2 0.0
22/05:00pm 13.1 8.2 6.7 65 3.1 WNW 22 35 12 19 1007.5 1007.6 0.0
22/04:30pm 13.6 7.4 6.2 61 3.6 WNW 28 39 15 21 1007.5 1007.6 0.0
22/04:00pm 14.0 7.5 8.0 67 3.0 WNW 32 43 17 23 1007.4 1007.5 0.0
22/03:41pm 14.1 8.2 7.6 65 3.2 WNW 28 50 15 27 1007.2 1007.3 0.0
22/03:30pm 13.2 9.0 9.6 79 1.9 WNW 22 30 12 16 1007.4 1007.5 0.0
22/03:00pm 12.3 6.0 9.0 80 1.7 W 32 44 17 24 1007.4 1007.5 0.0
22/02:30pm 14.4 8.3 8.1 66 3.2 WNW 30 43 16 23 1007.0 1007.1 0.0
22/02:00pm 13.8 7.3 8.0 68 2.9 WNW 32 44 17 24 1007.0 1007.1 0.0
22/01:30pm 13.8 7.6 9.3 74 2.3 WNW 32 44 17 24 1007.3 1007.4 0.0
22/01:00pm 13.9 7.9 8.5 70 2.7 WNW 30 39 16 21 1007.3 1007.4 0.0
22/12:30pm 13.5 7.3 7.9 69 2.8 WNW 30 41 16 22 1007.6 1007.7 0.0
22/12:00pm 13.8 8.2 8.6 71 2.6 WNW 28 37 15 20 1007.9 1008.0 0.0
22/11:30am 13.1 8.7 9.0 76 2.1 WNW 22 32 12 17 1008.1 1008.2 0.0
22/11:00am 12.1 6.4 8.2 77 1.9 WNW 28 37 15 20 1008.3 1008.4 0.0
22/10:30am 11.0 5.6 8.1 82 1.4 NW 26 35 14 19 1008.1 1008.2 0.0
22/10:00am 10.2 5.6 8.0 86 1.1 NW 22 30 12 16 1007.8 1007.9 0.0

Other Formats:

Comma delimited format used in spreadsheet applications
http://www.bom.gov.au/fwo/IDV60801/IDV60801.94827.axf

JavaScript Object Notation format (JSON) in row-major order
http://www.bom.gov.au/fwo/IDV60801/IDV60801.94827.json